Philipstown, New York
Current Conditions -  °F | °C
As of 8:45 AM on Friday 24 Oct 2014 (Local Time) from KSWF Reporting Station
Overcast Overcast  
Wind Chill: 46°   Ceiling: 3500
Heat Index: 48°   Visibility: 15mi
Dew Point: 46°   Wind: 5mph
Humidity: 93%   Direction: NA
Pressure: 29.83"   Gusts: NA
Location:  41.4593°N, 73.8985°W
Report Text: KSWF 241245Z VRB04KT 15SM OVC035 09/08 A2983
Loading
Personal Weather Stations






























Interactive Weather Map
Tropical Storm Tracking
New forecast layout! Learn more

10-Day Weather Forecast

Advertisements
Track Severe Weather on mobile